Glasgow, Missouri
Current Conditions -  °F | °C
As of 4:15 PM on Monday 24 Nov 2014 (Local Time) from KMHL Reporting Station
Overcast Overcast  
Wind Chill: 30°   Ceiling: 3200
Heat Index: 37°   Visibility: 10mi
Dew Point: 30°   Wind: 12mph
Humidity: 75%   Direction: 270°W
Pressure: 29.85"   Gusts: NA
Location:  39.23°N, 92.85°W
Report Text: KMHL 242215Z AUTO 27010KT 10SM OVC032 03/M01 A2985 RMK AO2
Loading
Personal Weather Stations






























Interactive Weather Map New forecast layout! Learn more

10-Day Weather Forecast

Advertisements
Track Severe Weather on mobile